Time;durP1;ratioP1;P1;durP2;ratioP2;P2;SDS_P1;SDS_P2;PMS_P1;PMS_P2;Temp;Humidity;BMP_temperature;BMP_pressure;BME280_temperature;BME280_humidity;BME280_pressure;Samples;Min_cycle;Max_cycle;Signal;HPM_P1;HPM_P2
2022/12/13 00:04:35;;;;;;;98.70;39.40;;;;;;;-5.82;100.00;101236.28;10498406;27;20106;-72
2022/12/13 00:09:35;;;;;;;95.27;36.70;;;;;;;-5.80;100.00;101238.84;10545271;27;20503;-72
2022/12/13 00:14:36;;;;;;;104.07;39.17;;;;;;;-5.77;100.00;101235.84;10570256;27;20044;-73
2022/12/13 00:19:37;;;;;;;96.97;39.90;;;;;;;-5.75;100.00;101236.56;10551109;27;20057;-72
2022/12/13 00:24:37;;;;;;;98.00;39.27;;;;;;;-5.78;100.00;101231.50;10585239;27;20028;-72
2022/12/13 00:29:38;;;;;;;96.27;40.53;;;;;;;-5.65;100.00;101232.06;10540718;27;20044;-73
2022/12/13 00:34:38;;;;;;;92.03;38.97;;;;;;;-5.64;100.00;101244.50;10585715;27;20042;-73
2022/12/13 00:39:39;;;;;;;100.17;37.93;;;;;;;-5.71;100.00;101244.19;10575270;28;20116;-73
2022/12/13 00:44:40;;;;;;;97.90;39.20;;;;;;;-5.73;100.00;101256.03;10583984;27;20039;-72
2022/12/13 00:49:40;;;;;;;102.37;41.67;;;;;;;-5.81;100.00;101245.16;10584176;27;20035;-73
2022/12/13 00:54:41;;;;;;;97.40;41.70;;;;;;;-5.92;100.00;101252.34;10580446;27;20036;-73
2022/12/13 00:59:41;;;;;;;93.90;40.93;;;;;;;-5.92;100.00;101263.06;10560431;28;20062;-74
2022/12/13 01:04:43;;;;;;;99.40;39.73;;;;;;;-6.04;100.00;101248.09;10567993;27;20082;-73
2022/12/13 01:09:44;;;;;;;90.63;39.07;;;;;;;-6.15;100.00;101229.47;10578384;28;20111;-73
2022/12/13 01:14:44;;;;;;;86.97;36.00;;;;;;;-6.17;100.00;101236.81;10562253;27;20091;-73
2022/12/13 01:19:45;;;;;;;92.17;38.27;;;;;;;-6.14;100.00;101236.50;10542504;27;20035;-73
2022/12/13 01:24:45;;;;;;;87.73;38.47;;;;;;;-6.03;100.00;101254.34;10578877;27;20032;-73
2022/12/13 01:29:46;;;;;;;96.63;38.10;;;;;;;-6.52;100.00;101179.16;10577991;28;20028;-73
2022/12/13 01:34:46;;;;;;;92.73;38.57;;;;;;;-6.13;100.00;101254.31;10556265;28;20032;-72
2022/12/13 01:39:47;;;;;;;83.90;36.87;;;;;;;-6.19;100.00;101260.22;10560961;28;20059;-73
2022/12/13 01:45:18;;;;;;;92.33;40.00;;;;;;;-6.20;100.00;101245.09;10563001;28;20065;-72
2022/12/13 01:50:40;;;;;;;89.83;34.80;;;;;;;-6.28;100.00;101235.06;10543904;27;20035;-72
2022/12/13 01:55:41;;;;;;;87.20;37.20;;;;;;;-6.34;100.00;101224.91;10561587;28;20032;-73
2022/12/13 02:00:41;;;;;;;90.30;38.17;;;;;;;-6.28;100.00;101243.13;10536120;28;20042;-72
2022/12/13 02:05:55;;;;;;;84.67;36.67;;;;;;;-6.31;100.00;101235.34;10565938;28;20403;-74
2022/12/13 02:10:55;;;;;;;86.27;34.73;;;;;;;-6.31;100.00;101209.38;10545296;28;20035;-72
2022/12/13 02:16:12;;;;;;;93.17;37.23;;;;;;;-6.27;100.00;101225.19;10578847;27;20447;-73
2022/12/13 02:21:33;;;;;;;98.17;38.10;;;;;;;-6.25;100.00;101228.59;10555796;28;20388;-73
2022/12/13 02:26:59;;;;;;;88.17;36.33;;;;;;;-6.29;100.00;101223.50;10578667;28;20035;-72
2022/12/13 02:32:14;;;;;;;94.93;39.33;;;;;;;-6.29;100.00;101222.66;10553580;27;20040;-72
2022/12/13 02:37:19;;;;;;;92.30;36.20;;;;;;;-6.34;100.00;101215.03;10588656;27;20048;-73
2022/12/13 02:43:01;;;;;;;86.05;38.35;;;;;;;-6.29;100.00;101214.63;10584630;27;20032;-73
2022/12/13 02:48:02;;;;;;;90.43;37.90;;;;;;;-6.36;100.00;101200.91;10554590;27;20054;-73
2022/12/13 02:53:03;;;;;;;82.77;37.53;;;;;;;-6.37;100.00;101220.66;10568528;27;20099;-73
2022/12/13 02:58:04;;;;;;;93.20;37.43;;;;;;;-6.41;100.00;101213.84;10565908;27;20056;-73
2022/12/13 03:03:19;;;;;;;93.77;37.13;;;;;;;-6.42;100.00;101217.53;10577184;27;20042;-72
2022/12/13 03:08:20;;;;;;;87.18;37.85;;;;;;;-6.44;100.00;101215.97;10551579;27;20518;-73
2022/12/13 03:13:47;;;;;;;84.23;35.23;;;;;;;-6.52;100.00;101200.56;10581691;27;20035;-72
2022/12/13 03:18:47;;;;;;;86.50;38.33;;;;;;;-6.65;100.00;101194.63;10571028;27;20040;-72
2022/12/13 03:23:49;;;;;;;86.57;38.60;;;;;;;-6.55;100.00;101198.16;10589411;27;20040;-72
2022/12/13 03:28:50;;;;;;;105.30;39.90;;;;;;;-6.52;100.00;101208.63;10589342;27;20042;-72
2022/12/13 03:33:50;;;;;;;89.43;38.60;;;;;;;-6.57;100.00;101198.31;10568632;27;20039;-72
2022/12/13 03:38:52;;;;;;;83.90;36.33;;;;;;;-6.65;100.00;101189.25;10589894;27;20035;-73
2022/12/13 03:43:52;;;;;;;76.77;33.63;;;;;;;-6.77;100.00;101169.75;10583914;27;20036;-72
2022/12/13 03:48:53;;;;;;;86.40;36.30;;;;;;;-6.70;100.00;101192.31;10564501;28;20580;-73
2022/12/13 03:53:53;;;;;;;91.97;37.73;;;;;;;-6.63;100.00;101187.28;10589304;27;20088;-72
2022/12/13 03:58:54;;;;;;;88.17;35.63;;;;;;;-6.75;100.00;101187.38;10549970;28;20039;-73
2022/12/13 04:03:54;;;;;;;77.87;34.73;;;;;;;-6.78;100.00;101187.66;10570795;27;20057;-73
2022/12/13 04:08:55;;;;;;;89.63;35.57;;;;;;;-6.76;100.00;101185.69;10581490;27;20586;-72
2022/12/13 04:13:57;;;;;;;87.53;33.70;;;;;;;-6.78;100.00;101184.09;10585826;27;20035;-72
2022/12/13 04:18:57;;;;;;;92.50;37.50;;;;;;;-6.78;100.00;101182.31;10560493;27;20039;-73
2022/12/13 04:23:58;;;;;;;85.33;36.83;;;;;;;-6.77;100.00;101175.94;10565548;27;20032;-72
2022/12/13 04:28:58;;;;;;;83.20;36.27;;;;;;;-6.83;100.00;101181.84;10582568;27;20035;-73
2022/12/13 04:33:59;;;;;;;87.67;37.40;;;;;;;-6.88;100.00;101176.06;10578232;28;20403;-72
2022/12/13 04:39:01;;;;;;;89.33;38.87;;;;;;;-6.92;100.00;101161.25;10581484;27;20053;-72
2022/12/13 04:44:01;;;;;;;86.87;37.17;;;;;;;-6.84;100.00;101179.28;10579198;27;20280;-72
2022/12/13 04:49:02;;;;;;;87.10;36.67;;;;;;;-6.84;100.00;101174.81;10562916;27;20032;-73
2022/12/13 04:54:02;;;;;;;95.70;39.90;;;;;;;-6.82;100.00;101172.84;10577135;27;20479;-72
2022/12/13 04:59:03;;;;;;;88.03;37.77;;;;;;;-6.87;100.00;101156.31;10582226;27;20155;-72
2022/12/13 05:04:03;;;;;;;99.20;40.67;;;;;;;-6.96;100.00;101128.53;10561750;27;20032;-73
2022/12/13 05:09:04;;;;;;;83.10;35.33;;;;;;;-6.81;100.00;101150.44;10587838;27;20106;-73
2022/12/13 05:14:04;;;;;;;98.33;38.37;;;;;;;-6.85;100.00;101146.31;10569012;27;20054;-73
2022/12/13 05:19:05;;;;;;;88.37;36.37;;;;;;;-6.87;100.00;101142.94;10546211;27;20035;-73
2022/12/13 05:24:06;;;;;;;85.50;36.13;;;;;;;-7.40;100.00;101065.50;10576237;27;20061;-73
2022/12/13 05:29:06;;;;;;;95.83;40.40;;;;;;;-6.86;100.00;101144.66;10571374;28;20039;-73
2022/12/13 05:34:07;;;;;;;89.23;37.30;;;;;;;-6.89;100.00;101144.91;10561185;28;20051;-71
2022/12/13 05:39:07;;;;;;;89.07;35.97;;;;;;;-6.87;100.00;101142.09;10563950;28;21624;-72
2022/12/13 05:44:09;;;;;;;88.30;38.57;;;;;;;-6.83;100.00;101144.38;10581504;28;20036;-73
2022/12/13 05:49:09;;;;;;;95.30;37.30;;;;;;;-6.85;100.00;101140.13;10580089;28;20040;-73
2022/12/13 05:54:10;;;;;;;93.03;38.23;;;;;;;-6.99;100.00;101118.09;10579888;27;20066;-72
2022/12/13 05:59:10;;;;;;;89.70;36.83;;;;;;;-6.82;100.00;101140.72;10545551;28;20048;-73
2022/12/13 06:04:11;;;;;;;92.33;39.10;;;;;;;-6.93;100.00;101133.59;10584138;27;20084;-73
2022/12/13 06:09:12;;;;;;;90.57;37.67;;;;;;;-6.85;100.00;101140.97;10570665;27;20038;-73
2022/12/13 06:14:12;;;;;;;101.07;37.93;;;;;;;-6.83;100.00;101144.38;10588153;27;20031;-73
2022/12/13 06:19:13;;;;;;;87.27;37.93;;;;;;;-6.87;100.00;101137.59;10587012;27;20088;-72
2022/12/13 06:24:14;;;;;;;94.30;40.67;;;;;;;-6.89;100.00;101139.53;10588074;27;20036;-73
2022/12/13 06:29:15;;;;;;;88.87;36.93;;;;;;;-6.98;100.00;101116.28;10536752;27;20040;-73
2022/12/13 06:34:16;;;;;;;103.80;40.07;;;;;;;-6.88;100.00;101130.53;10587047;27;20032;-73
2022/12/13 06:39:16;;;;;;;101.77;39.90;;;;;;;-7.53;100.00;101026.44;10586976;27;20036;-73
2022/12/13 06:44:17;;;;;;;103.33;41.77;;;;;;;-6.88;100.00;101125.19;10586869;27;20039;-72
2022/12/13 06:49:18;;;;;;;101.03;41.27;;;;;;;-6.81;100.00;101147.75;10585689;27;20035;-73
2022/12/13 06:54:19;;;;;;;104.23;40.30;;;;;;;-6.85;100.00;101149.00;10588060;27;20048;-72
2022/12/13 06:59:19;;;;;;;101.90;41.60;;;;;;;-6.85;100.00;101150.84;10567823;27;20036;-72
2022/12/13 07:04:20;;;;;;;100.00;37.90;;;;;;;-6.89;100.00;101139.53;10587628;27;20040;-73
2022/12/13 07:09:20;;;;;;;91.67;38.23;;;;;;;-6.81;100.00;101147.75;10568872;27;20032;-72
2022/12/13 07:14:21;;;;;;;92.53;39.20;;;;;;;-6.85;100.00;101140.13;10587170;27;20484;-73
2022/12/13 07:19:21;;;;;;;85.67;38.30;;;;;;;-6.63;100.00;101150.66;10584804;27;20044;-73
2022/12/13 07:24:22;;;;;;;88.17;35.93;;;;;;;-6.55;100.00;101153.50;10587947;27;20032;-72
2022/12/13 07:29:22;;;;;;;91.03;37.17;;;;;;;-6.49;100.00;101138.69;10587014;27;20035;-73
2022/12/13 07:34:23;;;;;;;106.93;38.33;;;;;;;-6.45;100.00;101150.81;10567099;28;20070;-72
2022/12/13 07:39:27;;;;;;;87.37;37.90;;;;;;;-6.45;100.00;101140.09;10584137;27;20061;-73
2022/12/13 07:44:27;;;;;;;85.40;37.00;;;;;;;-6.35;100.00;101156.22;10583213;27;20051;-72
2022/12/13 07:49:28;;;;;;;88.70;38.07;;;;;;;-6.25;100.00;101186.56;10585258;27;20393;-73
2022/12/13 07:54:28;;;;;;;95.63;36.97;;;;;;;-6.17;100.00;101181.34;10585152;27;20032;-72
2022/12/13 07:59:29;;;;;;;88.27;38.43;;;;;;;-6.10;100.00;101187.00;10558012;27;20274;-73
2022/12/13 08:04:29;;;;;;;79.57;34.10;;;;;;;-6.13;100.00;101160.50;10563019;27;20039;-73
2022/12/13 08:09:30;;;;;;;78.47;34.40;;;;;;;-6.07;100.00;101188.59;10538468;27;20041;-73
2022/12/13 08:14:30;;;;;;;86.27;36.03;;;;;;;-6.07;100.00;101189.44;10565170;27;20051;-73
2022/12/13 08:19:31;;;;;;;80.23;32.47;;;;;;;-6.00;100.00;101190.56;10582558;27;20077;-72
2022/12/13 08:24:31;;;;;;;112.77;33.90;;;;;;;-5.93;100.00;101189.00;10584908;27;20032;-73
2022/12/13 08:29:33;;;;;;;108.33;36.67;;;;;;;-5.91;100.00;101178.97;10582470;27;20038;-72
2022/12/13 08:34:33;;;;;;;106.80;37.97;;;;;;;-5.96;100.00;101169.69;10584183;27;20028;-73
2022/12/13 08:39:35;;;;;;;97.30;36.00;;;;;;;-6.00;100.00;101174.47;10582749;27;20054;-72
2022/12/13 08:44:35;;;;;;;91.90;37.93;;;;;;;-5.89;100.00;101184.19;10582577;27;20039;-72
2022/12/13 08:49:36;;;;;;;93.70;38.13;;;;;;;-5.93;100.00;101180.97;10573388;28;20035;-72
2022/12/13 08:54:36;;;;;;;90.60;39.27;;;;;;;-5.72;100.00;101198.75;10541236;28;20032;-73
2022/12/13 08:59:37;;;;;;;84.13;39.27;;;;;;;-5.68;100.00;101197.50;10560008;27;20484;-72
2022/12/13 09:04:37;;;;;;;94.13;37.23;;;;;;;-5.45;100.00;101210.63;10570582;27;20550;-73
2022/12/13 09:09:38;;;;;;;83.23;37.33;;;;;;;-5.27;100.00;101214.28;10559478;27;20039;-73
2022/12/13 09:14:38;;;;;;;74.50;35.53;;;;;;;-5.17;100.00;101209.72;10565954;27;20036;-71
2022/12/13 09:19:39;;;;;;;81.53;35.60;;;;;;;-5.15;100.00;101218.47;10557928;28;20056;-73
2022/12/13 09:24:39;;;;;;;75.93;35.33;;;;;;;-5.12;100.00;101223.59;10522254;28;20081;-73
2022/12/13 09:29:40;;;;;;;84.13;35.43;;;;;;;-5.00;100.00;101231.47;10538419;28;20032;-73
2022/12/13 09:34:40;;;;;;;78.13;35.13;;;;;;;-4.89;100.00;101216.03;10534639;28;20639;-73
2022/12/13 09:39:41;;;;;;;75.10;35.87;;;;;;;-4.80;100.00;101210.78;10558001;28;20047;-73
2022/12/13 09:44:44;;;;;;;80.37;34.47;;;;;;;-4.79;100.00;101202.59;10579407;27;20042;-73
2022/12/13 09:49:45;;;;;;;83.40;36.07;;;;;;;-4.73;100.00;101202.00;10570041;27;20035;-73
2022/12/13 09:54:45;;;;;;;79.60;38.10;;;;;;;-4.58;100.00;101185.41;10605657;27;20062;-72
2022/12/13 09:59:46;;;;;;;77.57;37.23;;;;;;;-4.40;100.00;101213.19;10604589;27;20035;-73
2022/12/13 10:04:46;;;;;;;77.53;36.50;;;;;;;-4.34;100.00;101196.47;10589701;28;20032;-72
2022/12/13 10:09:47;;;;;;;79.97;38.17;;;;;;;-4.32;100.00;101178.34;10579780;28;20039;-73
2022/12/13 10:14:54;;;;;;;85.20;36.73;;;;;;;-4.11;100.00;101193.38;10580212;28;20101;-73
2022/12/13 10:19:55;;;;;;;79.13;37.93;;;;;;;-4.46;100.00;101122.41;10546612;28;20044;-73
2022/12/13 10:24:56;;;;;;;78.13;35.07;;;;;;;-3.99;100.00;101178.72;10578250;28;20040;-73
2022/12/13 10:30:07;;;;;;;75.00;36.73;;;;;;;-3.91;100.00;101176.09;10578161;28;20093;-73
2022/12/13 10:35:19;;;;;;;86.10;40.17;;;;;;;-3.89;100.00;101157.97;10581371;28;20071;-73
2022/12/13 10:40:29;;;;;;;88.20;35.77;;;;;;;-3.65;100.00;101169.97;10563960;28;20036;-74
2022/12/13 10:45:29;;;;;;;73.30;35.43;;;;;;;-3.57;100.00;101151.22;10579952;28;20028;-73
2022/12/13 10:50:30;;;;;;;80.77;37.27;;;;;;;-3.37;100.00;101142.94;10585543;28;20035;-73
2022/12/13 10:55:34;;;;;;;73.40;34.43;;;;;;;-3.27;100.00;101157.16;10543276;28;20039;-73
2022/12/13 11:00:39;;;;;;;79.13;37.17;;;;;;;-3.27;100.00;101136.44;10568971;27;20031;-73
2022/12/13 11:05:40;;;;;;;85.43;38.25;;;;;;;-3.24;100.00;101124.53;10587845;27;20035;-74
2022/12/13 11:10:40;;;;;;;75.33;35.33;;;;;;;-3.14;100.00;101119.91;10564181;27;20032;-73
2022/12/13 11:15:41;;;;;;;71.10;33.67;;;;;;;-3.05;100.00;101110.84;10542463;27;20040;-74
2022/12/13 11:20:56;;;;;;;87.77;38.87;;;;;;;-2.95;100.00;101099.13;10541323;28;20051;-74
2022/12/13 11:25:58;;;;;;;76.67;37.87;;;;;;;-2.91;100.00;101090.56;10563292;27;20044;-73
2022/12/13 11:31:17;;;;;;;88.40;39.07;;;;;;;-2.83;100.00;101089.78;10547333;27;20091;-74
2022/12/13 11:36:36;;;;;;;82.03;38.10;;;;;;;-2.67;100.00;101103.31;10562095;28;20040;-74
2022/12/13 11:41:48;;;;;;;79.13;38.37;;;;;;;-2.52;100.00;101086.50;10563345;27;20043;-74
2022/12/13 11:46:53;;;;;;;86.40;40.00;;;;;;;-2.37;100.00;101095.66;10561868;27;20032;-74
2022/12/13 11:52:00;;;;;;;79.65;37.17;;;;;;;-2.19;100.00;101075.78;10552211;27;20063;-75
2022/12/13 11:57:03;;;;;;;85.90;38.23;;;;;;;-2.18;100.00;101037.88;10593083;27;20032;-75
2022/12/13 12:02:33;;;;;;;73.03;35.23;;;;;;;-1.92;100.00;101070.13;10551737;27;20042;-75
2022/12/13 12:07:38;;;;;;;84.90;37.43;;;;;;;-1.91;100.00;101073.66;10545753;27;20399;-73
2022/12/13 12:12:41;;;;;;;89.22;38.58;;;;;;;-1.88;100.00;101057.97;10545768;28;20036;-73
2022/12/13 12:17:42;;;;;;;73.87;34.70;;;;;;;-1.80;100.00;101061.66;10543102;28;20048;-73
2022/12/13 12:22:46;;;;;;;66.67;34.67;;;;;;;-1.79;100.00;101066.91;10537766;27;20426;-73
2022/12/13 12:28:02;;;;;;;70.13;36.20;;;;;;;-1.76;100.00;101057.63;10544073;27;20059;-73
2022/12/13 12:33:12;;;;;;;59.53;32.90;;;;;;;-1.71;100.00;101052.56;10561515;27;20036;-73
2022/12/13 12:38:38;;;;;;;75.97;34.00;;;;;;;-1.55;100.00;101052.56;10560313;27;20075;-73
2022/12/13 12:43:39;;;;;;;72.30;35.97;;;;;;;-1.32;100.00;101046.44;10543060;28;20050;-74
2022/12/13 12:48:47;;;;;;;70.40;34.67;;;;;;;-0.87;100.00;101026.88;10525991;28;20436;-74
2022/12/13 12:54:10;;;;;;;64.23;32.40;;;;;;;-0.21;100.00;101045.44;10559137;28;20061;-73
2022/12/13 12:59:32;;;;;;;53.30;27.47;;;;;;;0.36;100.00;101036.03;10542263;28;20050;-74
2022/12/13 13:04:38;;;;;;;57.20;27.47;;;;;;;0.93;100.00;101018.31;10559117;28;20034;-72
2022/12/13 13:09:38;;;;;;;33.57;18.67;;;;;;;1.54;100.00;101012.63;10542222;27;20035;-75
2022/12/13 13:14:39;;;;;;;45.30;24.00;;;;;;;1.76;100.00;101000.75;10529046;28;20051;-74
2022/12/13 13:19:40;;;;;;;43.83;22.63;;;;;;;2.36;100.00;101012.16;10571453;27;20099;-75
2022/12/13 13:24:40;;;;;;;35.60;20.77;;;;;;;2.40;100.00;101007.19;10559192;28;20156;-75
2022/12/13 13:29:41;;;;;;;42.40;24.08;;;;;;;1.88;100.00;100998.38;10542209;28;20040;-75
2022/12/13 13:34:43;;;;;;;40.10;25.10;;;;;;;0.77;100.00;100994.97;10557463;28;20043;-74
2022/12/13 13:40:12;;;;;;;42.63;25.88;;;;;;;0.01;100.00;101032.09;10526514;28;20036;-73
2022/12/13 13:45:19;;;;;;;47.73;25.80;;;;;;;-0.52;100.00;101026.53;10542658;28;20099;-74
2022/12/13 13:50:46;;;;;;;41.65;24.60;;;;;;;-0.76;100.00;101036.47;10578222;27;20040;-74
2022/12/13 13:56:29;;;;;;;48.37;27.03;;;;;;;-1.07;100.00;101039.94;10574142;27;20051;-74
2022/12/13 14:02:09;;;;;;;40.50;24.50;;;;;;;-1.00;100.00;101028.44;10575580;28;20542;-73
2022/12/13 14:07:40;;;;;;;51.67;26.57;;;;;;;-1.11;100.00;101022.41;10560085;28;20036;-73
2022/12/13 14:13:02;;;;;;;45.30;25.60;;;;;;;-1.23;100.00;101037.28;10557802;28;20888;-74
2022/12/13 14:18:37;;;;;;;46.43;26.37;;;;;;;-1.50;100.00;101020.47;10558758;28;20122;-74
2022/12/13 14:24:02;;;;;;;46.17;26.63;;;;;;;-1.50;100.00;101039.38;10561787;27;20043;-74
2022/12/13 14:29:04;;;;;;;48.43;26.37;;;;;;;-1.67;100.00;101024.22;10564993;27;20058;-74
2022/12/13 14:34:06;;;;;;;51.13;27.73;;;;;;;-1.85;100.00;101035.19;10548482;27;20475;-75
2022/12/13 14:39:14;;;;;;;50.97;29.70;;;;;;;-2.10;100.00;101028.94;10547762;27;20040;-74
2022/12/13 14:44:15;;;;;;;49.23;27.27;;;;;;;-2.27;100.00;101028.94;10565828;27;20047;-73
2022/12/13 14:49:15;;;;;;;51.90;30.87;;;;;;;-2.53;100.00;101020.13;10567115;27;20065;-74
2022/12/13 14:54:18;;;;;;;55.77;30.50;;;;;;;-2.75;100.00;101035.91;10546723;28;20036;-74
2022/12/13 14:59:19;;;;;;;62.53;33.10;;;;;;;-3.05;100.00;101026.50;10545893;27;20118;-74
2022/12/13 15:04:27;;;;;;;62.70;33.17;;;;;;;-3.19;100.00;101030.66;10565240;27;20040;-74
2022/12/13 15:09:28;;;;;;;61.47;31.43;;;;;;;-3.54;100.00;100994.78;10564125;27;20089;-73
2022/12/13 15:14:28;;;;;;;63.53;33.13;;;;;;;-3.59;100.00;101002.50;10554970;27;20036;-73
2022/12/13 15:19:28;;;;;;;61.83;33.40;;;;;;;-3.72;100.00;100997.56;10538970;27;20041;-73
2022/12/13 15:24:31;;;;;;;70.13;34.30;;;;;;;-3.89;100.00;100985.81;10563385;27;20088;-74
2022/12/13 15:29:31;;;;;;;66.67;33.87;;;;;;;-3.96;100.00;100990.16;10547016;27;20057;-74
2022/12/13 15:34:34;;;;;;;75.23;36.83;;;;;;;-4.12;100.00;100985.47;10545410;27;20055;-74
2022/12/13 15:39:36;;;;;;;68.70;36.47;;;;;;;-4.22;100.00;100989.25;10528387;28;20043;-73
2022/12/13 15:44:57;;;;;;;72.03;34.57;;;;;;;-4.27;100.00;100998.63;10542200;28;20035;-73
2022/12/13 15:50:03;;;;;;;68.13;35.83;;;;;;;-4.40;100.00;100992.81;10548365;27;20033;-73
2022/12/13 15:55:06;;;;;;;83.95;39.30;;;;;;;-4.46;100.00;100994.25;10558709;28;20043;-74
2022/12/13 16:00:24;;;;;;;73.27;34.43;;;;;;;-4.56;100.00;100998.88;10562485;27;20043;-74
2022/12/13 16:05:26;;;;;;;83.87;37.90;;;;;;;-4.69;100.00;100995.72;10545293;27;20031;-73
2022/12/13 16:10:27;;;;;;;72.03;35.87;;;;;;;-4.83;100.00;100997.06;10560510;27;20042;-73
2022/12/13 16:15:45;;;;;;;73.97;35.53;;;;;;;-4.91;100.00;100988.94;10542492;28;20044;-73
2022/12/13 16:20:45;;;;;;;78.43;38.00;;;;;;;-5.02;100.00;100983.75;10545579;27;20046;-73
2022/12/13 16:25:46;;;;;;;77.70;36.80;;;;;;;-5.11;100.00;100991.69;10556743;28;20028;-73
2022/12/13 16:31:15;;;;;;;84.70;38.90;;;;;;;-5.53;100.00;100914.38;10547333;28;20038;-73
2022/12/13 16:36:15;;;;;;;85.77;40.60;;;;;;;-5.23;100.00;100974.09;10550001;28;20044;-72
2022/12/13 16:41:16;;;;;;;79.10;37.87;;;;;;;-5.32;100.00;100958.91;10527657;27;20036;-74
2022/12/13 16:46:16;;;;;;;82.67;40.33;;;;;;;-5.27;100.00;100984.31;10602171;27;20495;-72
2022/12/13 16:51:17;;;;;;;89.43;43.03;;;;;;;-5.31;100.00;100982.91;10588422;27;20050;-71
2022/12/13 16:56:20;;;;;;;92.70;44.60;;;;;;;-5.53;100.00;100968.03;10622121;27;20031;-73
2022/12/13 17:01:20;;;;;;;100.70;47.17;;;;;;;-5.46;100.00;100989.75;10576875;27;20389;-73
2022/12/13 17:06:22;;;;;;;97.07;45.17;;;;;;;-5.50;100.00;100991.91;10565955;27;20028;-73
2022/12/13 17:11:22;;;;;;;93.73;45.30;;;;;;;-5.53;100.00;100973.41;10528769;28;20096;-73
2022/12/13 17:16:23;;;;;;;92.13;45.53;;;;;;;-5.53;100.00;100981.44;10538245;27;20043;-73
2022/12/13 17:21:24;;;;;;;95.87;46.70;;;;;;;-5.55;100.00;100975.38;10557396;27;20048;-73
2022/12/13 17:26:26;;;;;;;94.40;43.87;;;;;;;-5.71;100.00;100954.53;10571700;27;20050;-73
2022/12/13 17:31:26;;;;;;;90.27;42.93;;;;;;;-5.62;100.00;100968.06;10590586;27;20039;-71
2022/12/13 17:36:30;;;;;;;99.27;44.23;;;;;;;-5.67;100.00;100971.19;10600923;27;20084;-73
2022/12/13 17:41:30;;;;;;;93.67;43.57;;;;;;;-5.70;100.00;100963.44;10579580;27;20066;-72
2022/12/13 17:46:31;;;;;;;97.67;43.27;;;;;;;-5.67;100.00;100960.47;10611457;27;20039;-73
2022/12/13 17:51:31;;;;;;;93.13;45.67;;;;;;;-5.68;100.00;100961.47;10585699;27;20098;-72
2022/12/13 17:56:32;;;;;;;95.93;44.80;;;;;;;-5.73;100.00;100950.31;10542481;28;20038;-73
2022/12/13 18:01:33;;;;;;;97.43;43.30;;;;;;;-5.72;100.00;100962.75;10592869;27;20058;-72
2022/12/13 18:06:35;;;;;;;90.87;41.47;;;;;;;-5.78;100.00;100957.97;10563600;27;20035;-73
2022/12/13 18:11:35;;;;;;;100.83;47.17;;;;;;;-5.88;100.00;100936.53;10578752;27;20167;-73
2022/12/13 18:16:36;;;;;;;98.13;46.50;;;;;;;-5.73;100.00;100955.69;10555554;27;20525;-72
2022/12/13 18:21:36;;;;;;;101.00;46.37;;;;;;;-5.66;100.00;100962.16;10576028;27;20047;-73
2022/12/13 18:26:37;;;;;;;97.13;46.00;;;;;;;-5.68;100.00;100959.63;10603366;27;20035;-72
2022/12/13 18:31:38;;;;;;;108.50;46.60;;;;;;;-5.71;100.00;100942.97;10620610;27;20362;-72
2022/12/13 18:36:38;;;;;;;108.60;48.00;;;;;;;-5.70;100.00;100939.31;10588887;27;20031;-73
2022/12/13 18:41:40;;;;;;;112.57;48.17;;;;;;;-5.81;100.00;100918.88;10596546;27;20031;-73
2022/12/13 18:46:42;;;;;;;101.67;45.37;;;;;;;-5.67;100.00;100944.38;10603024;27;20043;-73
2022/12/13 18:51:44;;;;;;;112.83;46.50;;;;;;;-5.96;100.00;100869.44;10615245;27;20043;-73
2022/12/13 18:56:44;;;;;;;96.63;49.50;;;;;;;-5.60;100.00;100918.66;10597010;27;20039;-73
2022/12/13 19:01:45;;;;;;;105.87;47.60;;;;;;;-5.60;100.00;100924.03;10598218;27;20054;-72
2022/12/13 19:06:46;;;;;;;110.90;48.00;;;;;;;-5.70;100.00;100915.19;10576861;27;20054;-72
2022/12/13 19:11:46;;;;;;;104.43;46.33;;;;;;;-5.85;100.00;100887.13;10603436;27;20058;-72
2022/12/13 19:16:48;;;;;;;102.87;47.60;;;;;;;-5.69;100.00;100904.28;10592582;27;20080;-74
2022/12/13 19:21:49;;;;;;;106.83;44.60;;;;;;;-5.68;100.00;100914.03;10597574;27;20043;-73
2022/12/13 19:26:51;;;;;;;93.53;43.43;;;;;;;-5.72;100.00;100909.13;10591390;27;20023;-72
2022/12/13 19:31:51;;;;;;;100.70;44.33;;;;;;;-5.80;100.00;100906.31;10597663;27;20037;-73
2022/12/13 19:36:52;;;;;;;89.67;44.93;;;;;;;-6.09;100.00;100880.50;10587708;27;20040;-73
2022/12/13 19:41:53;;;;;;;88.03;42.50;;;;;;;-6.01;100.00;100906.56;10591087;27;20043;-73
2022/12/13 19:46:54;;;;;;;90.07;43.13;;;;;;;-6.13;100.00;100885.28;10625334;27;20039;-74
2022/12/13 19:51:55;;;;;;;80.40;40.40;;;;;;;-6.09;100.00;100899.25;10619954;27;20124;-73
2022/12/13 19:56:55;;;;;;;94.93;43.30;;;;;;;-6.28;100.00;100859.97;10614120;27;20035;-73
2022/12/13 20:01:56;;;;;;;88.80;39.53;;;;;;;-6.23;100.00;100873.75;10583016;27;20051;-73
2022/12/13 20:06:58;;;;;;;85.57;42.50;;;;;;;-6.25;100.00;100877.56;10606715;27;20435;-73
2022/12/13 20:12:00;;;;;;;82.20;40.33;;;;;;;-6.27;100.00;100866.16;10595769;27;20032;-72
2022/12/13 20:17:02;;;;;;;101.43;43.20;;;;;;;-6.29;100.00;100858.25;10581728;27;20032;-72
2022/12/13 20:22:02;;;;;;;95.53;43.63;;;;;;;-6.29;100.00;100858.25;10576592;27;20043;-73
2022/12/13 20:27:03;;;;;;;86.87;41.80;;;;;;;-6.24;100.00;100855.13;10581435;27;20039;-72
2022/12/13 20:32:04;;;;;;;83.50;40.63;;;;;;;-6.31;100.00;100850.34;10575690;27;20031;-73
2022/12/13 20:37:04;;;;;;;79.30;41.33;;;;;;;-6.33;100.00;100841.63;10580424;27;20036;-72
2022/12/13 20:42:05;;;;;;;83.93;42.63;;;;;;;-6.42;100.00;100822.91;10587263;27;20514;-72
2022/12/13 20:47:05;;;;;;;84.33;39.40;;;;;;;-6.30;100.00;100841.34;10593987;27;20511;-73
2022/12/13 20:52:06;;;;;;;84.83;42.37;;;;;;;-6.36;100.00;100831.22;10569461;27;20492;-73
2022/12/13 20:57:06;;;;;;;88.57;39.73;;;;;;;-6.32;100.00;100821.91;10607814;27;20075;-72
2022/12/13 21:02:09;;;;;;;87.03;41.13;;;;;;;-6.42;100.00;100814.88;10590376;27;20057;-72
2022/12/13 21:07:09;;;;;;;86.17;37.87;;;;;;;-6.35;100.00;100806.09;10603892;27;20487;-73
2022/12/13 21:12:09;;;;;;;84.13;38.67;;;;;;;-6.30;100.00;100809.19;10563403;27;20050;-73
2022/12/13 21:17:10;;;;;;;87.00;40.73;;;;;;;-6.21;100.00;100823.53;10608026;27;20442;-73
2022/12/13 21:22:12;;;;;;;89.47;41.97;;;;;;;-6.26;100.00;100808.88;10622565;27;20046;-72
2022/12/13 21:27:14;;;;;;;76.20;39.50;;;;;;;-6.20;100.00;100808.31;10579232;27;20031;-73
2022/12/13 21:32:15;;;;;;;78.67;38.20;;;;;;;-6.23;100.00;100797.91;10567942;27;20039;-73
2022/12/13 21:37:16;;;;;;;80.87;39.67;;;;;;;-6.24;100.00;100796.19;10590793;27;20043;-73
2022/12/13 21:42:16;;;;;;;85.70;39.10;;;;;;;-6.21;100.00;100807.47;10588833;27;20099;-73
2022/12/13 21:47:17;;;;;;;75.73;38.63;;;;;;;-6.23;100.00;100792.53;10608884;27;20050;-73
2022/12/13 21:52:17;;;;;;;88.73;40.53;;;;;;;-6.21;100.00;100795.91;10602960;27;20103;-72
2022/12/13 22:02:39;;;;;;;75.40;37.20;;;;;;;-6.27;100.00;100780.41;10604016;27;20060;-73
2022/12/13 22:07:39;;;;;;;81.47;38.00;;;;;;;-6.29;100.00;100784.06;10613623;27;20465;-72
2022/12/13 22:12:40;;;;;;;81.70;38.40;;;;;;;-6.37;100.00;100767.88;10577033;27;20047;-72
2022/12/13 22:17:41;;;;;;;84.97;39.60;;;;;;;-6.35;100.00;100765.06;10607445;27;20095;-71
2022/12/13 22:22:42;;;;;;;85.20;37.50;;;;;;;-6.32;100.00;100767.47;10585700;27;20510;-72
2022/12/13 22:27:43;;;;;;;81.97;39.50;;;;;;;-6.29;100.00;100761.81;10603867;27;20518;-72
2022/12/13 22:32:43;;;;;;;75.77;36.77;;;;;;;-6.43;100.00;100733.66;10597235;27;20039;-73
2022/12/13 22:37:47;;;;;;;82.77;39.50;;;;;;;-6.30;100.00;100739.53;10619090;27;20484;-73